Picture Butte, Canada
Current Conditions -  °F | °C
As of 10:00 PM on Tuesday 25 Nov 2014 (Local Time) from CYQL Reporting Station
Overcast Overcast  
Wind Chill: -2°   Ceiling: 5500
Heat Index: -2°   Visibility: 15mi
Dew Point: -3°   Wind: 3mph
Humidity: 93%   Direction: 310°NW
Pressure: 30.14"   Gusts: NA
Location:  49.87°N, 112.78°W
Report Text: CYQL 260500Z 31003KT 15SM OVC055 M02/M03 A3014 RMK SC8 LAST STFD OBS/NXT 261300Z SLP243
Loading
Personal Weather Stations






























Interactive Weather Map New forecast layout! Learn more

10-Day Weather Forecast

Advertisements
Track Severe Weather on mobile